Overview Statistics Trail Chart Weather Telemetry Raw packets
 

This is the latest recevied weather packets stored in our database for station/object KB0BS-13. If no packets are shown the sender has not sent any weather packets the latest 10 day(s).

<< 62 63 64 65 66 67 68 >>
Time Temp. Humidity Pressure Rain* Wind** Luminosity Snow
1777274049 3.33° C 83% 1021.8 hPa 0 mm - 0 W/m² -
1777273747 3.33° C 83% 1021.8 hPa 0 mm - 0 W/m² -
1777273445 3.33° C 83% 1021.4 hPa 0 mm - 0 W/m² -
1777273142 3.33° C 83% 1021.4 hPa 0 mm - 0 W/m² -
1777272839 3.89° C 82% 1021.8 hPa 0 mm - 0 W/m² -
1777272536 3.89° C 82% 1021.6 hPa 0 mm - 0 W/m² -
1777272234 3.89° C 82% 1021.8 hPa 0 mm - 0 W/m² -
1777271930 3.89° C 83% 1021.7 hPa 0 mm - 0 W/m² -
1777271626 3.89° C 82% 1021.8 hPa 0 mm - 0 W/m² -
1777271323 3.89° C 80% 1021.8 hPa 0 mm - 0 W/m² -
1777271019 3.89° C 80% 1022.1 hPa 0 mm - 0 W/m² -
1777270715 3.89° C 81% 1022 hPa 0 mm - 0 W/m² -
1777270412 4.44° C 79% 1022 hPa 0 mm - 0 W/m² -
1777270108 4.44° C 78% 1022 hPa 0 mm - 0 W/m² -
1777269806 3.89° C 78% 1021.9 hPa 0 mm - 0 W/m² -
1777269502 3.89° C 80% 1022.2 hPa 0 mm - 0 W/m² -
1777269195 4.44° C 78% 1022.1 hPa 0 mm - 0 W/m² -
1777268891 3.89° C 80% 1022.1 hPa 0 mm - 0 W/m² -
1777268589 3.89° C 82% 1022.2 hPa 0 mm - 0 W/m² -
1777268285 3.33° C 82% 1022.1 hPa 0 mm - 0 W/m² -
1777267983 3.89° C 81% 1022.1 hPa 0 mm - 0 W/m² -
1777267679 5° C 79% 1022 hPa 0 mm - 0 W/m² -
1777267377 5° C 76% 1021.8 hPa 0 mm - 0 W/m² -
1777267072 5° C 76% 1021.8 hPa 0 mm - 0 W/m² -
1777266769 5° C 75% 1021.7 hPa 0 mm - 0 W/m² -

* Rain latest hour (hover to see other rain measurements)
** Current wind speed in m/s (hover to see current wind gust speed)